Latest Weather Observations for Flinders Reef

IDQ60801

Issued at 3:02 pm EST Saturday 24 June 2017 (issued every 30 minutes, with the page automatically refreshed every 10 minutes)

About weather observations | Map of weather stations | Latest weather observations for QLD | Other Formats
Station Details ID: 200783 Name: FLINDERS REEF Lat: -17.72 Lon: 148.45 Height: 2.6 m
Data from the previous 72 hours. | See also: Recent months at Flinders Reef
Date/Time
EST
Temp
°C
App
Temp
°C
Dew
Point
°C
Rel
Hum
%
Delta-T
°C
Wind Press
QNH
hPa
Press
MSL
hPa
Rain since
9am
mm
Dir  Spd
km/h
Gust
km/h
Spd
kts
Gust
kts
24/03:00pm 24.5 - - - - SE 30 33 16 18 1014.0 - -
24/02:30pm 24.7 - - - - SE 28 33 15 18 1014.2 - -
24/02:24pm 24.4 - - - - SE 30 - 16 - - 1014.1 -
24/02:00pm 24.3 - - - - SE 30 33 16 18 1014.2 - -
24/01:30pm 24.3 - - - - ESE 30 33 16 18 1014.3 - -
24/01:24pm 24.4 - - - - ESE 30 - 16 - - 1014.2 -
24/01:00pm 24.3 - - - - SE 32 39 17 21 1014.4 - -
24/12:30pm 24.7 - - - - ESE 28 33 15 18 1014.9 - -
24/12:24pm 24.7 - - - - ESE 30 - 16 - - 1014.8 -
24/12:00pm 24.3 - - - - ESE 30 35 16 19 1015.2 - -
24/11:30am 24.3 - - - - ESE 32 35 17 19 1015.4 - -
24/11:24am 24.3 - - - - ESE 32 - 17 - - 1015.4 -
24/11:00am 24.3 - - - - ESE 33 39 18 21 1015.6 - -
24/10:30am 24.6 - - - - ESE 33 39 18 21 1015.8 - -
24/10:24am 24.5 - - - - ESE 33 - 18 - - 1015.8 -
24/10:00am 24.6 - - - - ESE 32 37 17 20 1015.9 - -
24/09:30am 24.6 - - - - ESE 33 37 18 20 1015.9 - -
24/09:24am 24.6 - - - - ESE 32 - 17 - - 1015.8 -
24/09:00am 24.5 - - - - ESE 32 35 17 19 1015.9 - -
24/08:30am 24.3 - - - - SE 33 39 18 21 1015.8 - -
24/08:24am 24.5 - - - - SE 33 - 18 - - 1015.6 -
24/08:00am 24.1 - - - - ESE 33 39 18 21 1015.5 - -
24/07:30am 24.3 - - - - ESE 35 41 19 22 1015.2 - -
24/07:24am 24.4 - - - - ESE 33 - 18 - - 1015.0 -
24/07:00am 24.2 - - - - ESE 32 37 17 20 1014.9 - -
24/06:30am 24.1 - - - - ESE 33 39 18 21 1014.7 - -
24/06:24am 24.2 - - - - ESE 33 - 18 - - 1014.5 -
24/06:00am 24.2 - - - - ESE 32 37 17 20 1014.6 - -
24/05:30am 24.3 - - - - ESE 30 35 16 19 1014.5 - -
24/05:24am 24.1 - - - - ESE 30 - 16 - - 1014.3 -
24/05:00am 24.1 - - - - ESE 30 35 16 19 1014.3 - -
24/04:30am 24.3 - - - - ESE 32 35 17 19 1014.2 - -
24/04:24am 24.1 - - - - ESE 32 - 17 - - 1014.2 -
24/04:00am 24.0 - - - - ESE 32 37 17 20 1014.4 - -
24/03:30am 23.8 - - - - SE 32 37 17 20 1014.4 - -
24/03:24am 23.9 - - - - ESE 32 - 17 - - 1014.4 -
24/03:00am 24.1 - - - - ESE 30 35 16 19 1014.6 - -
24/02:30am 24.0 - - - - ESE 28 33 15 18 1015.0 - -
24/02:24am 23.8 - - - - ESE 30 - 16 - - 1015.0 -
24/02:00am 24.1 - - - - ESE 30 35 16 19 1015.4 - -
24/01:30am 24.0 - - - - ESE 32 37 17 20 1015.7 - -
24/01:24am 24.0 - - - - ESE 32 - 17 - - 1015.6 -
24/01:00am 24.0 - - - - SE 32 37 17 20 1016.0 - -
24/12:30am 23.9 - - - - SSE 32 37 17 20 1016.3 - -
24/12:24am 23.9 - - - - SSE 32 - 17 - - 1016.2 -
24/12:00am 23.5 - - - - SE 24 28 13 15 1016.4 - -
 
Date/Time
EST
Temp
°C
App
Temp
°C
Dew
Point
°C
Rel
Hum
%
Delta-T
°C
Wind Press
QNH
hPa
Press
MSL
hPa
Rain since
9am
mm
Dir  Spd
km/h
Gust
km/h
Spd
kts
Gust
kts
23/11:30pm 22.5 - - - - ESE 30 44 16 24 1016.8 - -
23/11:24pm 22.2 - - - - SE 35 - 19 - - 1016.9 -
23/11:00pm 23.8 - - - - ESE 24 30 13 16 1017.0 - -
23/10:30pm 23.6 - - - - SE 30 33 16 18 1017.2 - -
23/10:24pm 23.9 - - - - SE 32 - 17 - - 1017.2 -
23/10:00pm 23.3 - - - - SE 26 32 14 17 1017.5 - -
23/09:30pm 22.3 - - - - SE 30 33 16 18 1017.5 - -
23/09:24pm 22.1 - - - - SSE 26 - 14 - - 1017.4 -
23/09:00pm 21.2 - - - - SE 30 44 16 24 1017.6 - -
23/08:51pm 22.2 - - - - SSE 41 44 22 24 1017.4 - -
23/08:30pm 22.1 - - - - SSE 20 22 11 12 1017.3 - -
23/08:24pm 22.3 - - - - SE 22 - 12 - - 1017.2 -
23/08:00pm 21.5 - - - - SE 28 35 15 19 1017.3 - -
23/07:30pm 20.9 - - - - SSE 24 30 13 16 1017.3 - -
23/07:24pm 20.9 - - - - SSE 24 - 13 - - 1017.2 -
23/07:00pm 20.2 - - - - ESE 28 39 15 21 1017.2 - -
23/06:30pm 20.1 - - - - SSE 28 32 15 17 1016.9 - -
23/06:24pm 20.2 - - - - SSE 30 - 16 - - 1016.7 -
23/06:20pm 20.2 - - - - SSE 32 35 17 19 1016.8 - -
23/06:00pm 20.4 - - - - SE 44 56 24 30 1016.8 - -
23/05:30pm 23.0 - - - - SE 39 46 21 25 1016.1 - -
23/05:24pm 23.1 - - - - SE 37 - 20 - - 1015.9 -
23/05:00pm 23.3 - - - - SSE 39 44 21 24 1015.8 - -
23/04:30pm 23.4 - - - - SE 44 50 24 27 1015.5 - -
23/04:24pm 23.4 - - - - SE 43 - 23 - - 1015.3 -
23/04:00pm 23.8 - - - - SE 30 35 16 19 1015.3 - -
23/03:30pm 23.6 - - - - SSE 35 41 19 22 1015.2 - -
23/03:24pm 23.6 - - - - SSE 37 - 20 - - 1015.1 -
23/03:00pm 23.5 - - - - SSE 39 46 21 25 1015.1 - -
23/02:30pm 24.1 - - - - SE 33 37 18 20 1015.3 - -
23/02:24pm 24.2 - - - - SE 33 - 18 - - 1015.2 -
23/02:00pm 24.0 - - - - SE 32 35 17 19 1015.5 - -
23/01:30pm 24.4 - - - - SE 30 35 16 19 1015.6 - -
23/01:24pm 24.4 - - - - ESE 28 - 15 - - 1015.5 -
23/01:00pm 24.7 - - - - ESE 30 35 16 19 1015.9 - -
23/12:30pm 24.7 - - - - ESE 32 35 17 19 1016.5 - -
23/12:24pm 24.8 - - - - ESE 32 - 17 - - 1016.4 -
23/12:00pm 24.8 - - - - ESE 33 39 18 21 1016.8 - -
23/11:30am 24.8 - - - - ESE 32 39 17 21 1017.2 - -
23/11:24am 24.8 - - - - ESE 33 - 18 - - 1017.1 -
23/11:00am 24.8 - - - - ESE 33 39 18 21 1017.4 - -
23/10:30am 24.6 - - - - ESE 33 39 18 21 1017.8 - -
23/10:24am 24.7 - - - - ESE 33 - 18 - - 1017.7 -
23/10:00am 24.2 - - - - ESE 30 35 16 19 1018.0 - -
23/09:30am 24.1 - - - - E 33 39 18 21 1018.1 - -
23/09:24am 23.9 - - - - E 35 - 19 - - 1018.0 -
23/09:00am 22.6 - - - - SE 20 26 11 14 1018.2 - -
23/08:30am 22.5 - - - - SSE 19 20 10 11 1018.0 - -
23/08:24am 22.0 - - - - SE 20 - 11 - - 1017.9 -
23/08:00am 22.4 - - - - S 33 41 18 22 1017.8 - -
23/07:30am 22.6 - - - - S 24 28 13 15 1017.5 - -
23/07:24am 22.7 - - - - S 24 - 13 - - 1017.4 -
23/07:00am 22.7 - - - - SSE 28 30 15 16 1017.4 - -
23/06:30am 23.3 - - - - SE 32 35 17 19 1017.1 - -
23/06:25am 23.2 - - - - ESE 33 37 18 20 1017.0 - -
23/06:24am 23.3 - - - - SE 33 - 18 - - 1016.9 -
23/06:00am 22.3 - - - - SSE 41 50 22 27 1016.9 - -
23/05:37am 22.2 - - - - SE 39 48 21 26 1017.1 - -
23/05:30am 23.0 - - - - SSE 30 35 16 19 1017.0 - -
23/05:24am 22.8 - - - - SSE 33 - 18 - - 1016.9 -
23/05:00am 23.3 - - - - SSE 37 43 20 23 1016.9 - -
23/04:30am 23.6 - - - - SSE 37 41 20 22 1016.7 - -
23/04:24am 23.5 - - - - SSE 35 - 19 - - 1016.6 -
23/04:00am 23.6 - - - - SSE 35 43 19 23 1016.6 - -
23/03:30am 23.3 - - - - SSE 39 46 21 25 1016.7 - -
23/03:24am 23.0 - - - - SSE 43 - 23 - - 1016.6 -
23/03:00am 23.7 - - - - SE 43 50 23 27 1016.8 - -
23/02:30am 23.9 - - - - SE 39 44 21 24 1017.0 - -
23/02:24am 23.8 - - - - SE 39 - 21 - - 1016.9 -
23/02:00am 23.5 - - - - SE 30 35 16 19 1017.1 - -
23/01:30am 23.0 - - - - ESE 37 48 20 26 1017.6 - -
23/01:24am 23.6 - - - - SE 33 - 18 - - 1017.6 -
23/01:00am 23.3 - - - - SE 39 48 21 26 1017.9 - -
23/12:30am 23.8 - - - - SE 41 48 22 26 1018.0 - -
23/12:24am 24.0 - - - - SE 39 - 21 - - 1018.0 -
23/12:00am 24.3 - - - - ESE 32 37 17 20 1018.3 - -
 
Date/Time
EST
Temp
°C
App
Temp
°C
Dew
Point
°C
Rel
Hum
%
Delta-T
°C
Wind Press
QNH
hPa
Press
MSL
hPa
Rain since
9am
mm
Dir  Spd
km/h
Gust
km/h
Spd
kts
Gust
kts
22/11:30pm 24.4 - - - - ESE 37 43 20 23 1018.5 - -
22/11:24pm 24.4 - - - - E 35 - 19 - - 1018.4 -
22/11:00pm 24.4 - - - - ESE 41 48 22 26 1018.8 - -
22/10:30pm 24.3 - - - - ESE 43 48 23 26 1019.0 - -
22/10:24pm 24.4 - - - - ESE 43 - 23 - - 1018.9 -
22/10:00pm 24.4 - - - - ESE 41 50 22 27 1019.2 - -
22/09:30pm 24.7 - - - - SE 39 50 21 27 1019.2 - -
22/09:24pm 24.5 - - - - SE 41 - 22 - - 1019.1 -
22/09:00pm 24.5 - - - - SE 35 50 19 27 1019.2 - -
22/08:30pm 24.4 - - - - SE 35 43 19 23 1019.1 - -
22/08:24pm 24.7 - - - - SE 35 - 19 - - 1018.9 -
22/08:00pm 24.5 - - - - SE 39 44 21 24 1018.8 - -
22/07:30pm 24.4 - - - - ESE 39 46 21 25 1018.7 - -
22/07:24pm 24.5 - - - - ESE 39 - 21 - - 1018.6 -
22/07:00pm 24.3 - - - - SE 41 48 22 26 1018.5 - -
22/06:30pm 24.5 - - - - ESE 41 46 22 25 1018.1 - -
22/06:24pm 24.4 - - - - ESE 41 - 22 - - 1018.0 -
22/06:00pm 24.4 - - - - E 33 39 18 21 1017.8 - -
22/05:30pm 24.4 - - - - SE 35 43 19 23 1017.5 - -
22/05:24pm 24.4 - - - - SE 39 - 21 - - 1017.3 -
22/05:00pm 24.3 - - - - SE 43 50 23 27 1017.2 - -
22/04:30pm 24.7 - - - - SE 39 46 21 25 1016.8 - -
22/04:24pm 24.7 - - - - SE 39 - 21 - - 1016.7 -
22/04:00pm 24.6 - - - - ESE 39 46 21 25 1016.9 - -
22/03:30pm 24.6 - - - - SE 39 44 21 24 1016.8 - -
22/03:24pm 24.7 - - - - SE 37 - 20 - - 1016.6 -
22/03:00pm 24.6 - - - - SE 35 41 19 22 1016.8 - -
22/02:30pm 24.6 - - - - ESE 33 39 18 21 1017.1 - -
22/02:24pm 24.6 - - - - ESE 33 - 18 - - 1017.1 -
22/02:00pm 24.6 - - - - SE 37 43 20 23 1017.4 - -
22/01:30pm 24.6 - - - - ESE 37 43 20 23 1017.6 - -
22/01:24pm 24.5 - - - - SE 39 - 21 - - 1017.5 -
22/01:00pm 24.6 - - - - ESE 37 43 20 23 1017.9 - -
22/12:30pm 24.7 - - - - ESE 33 39 18 21 1018.3 - -
22/12:24pm 24.8 - - - - SE 35 - 19 - - 1018.4 -
22/12:00pm 24.6 - - - - SE 35 41 19 22 1018.7 - -
22/11:30am 24.8 - - - - SE 35 41 19 22 1019.1 - -
22/11:24am 24.8 - - - - ESE 35 - 19 - - 1019.1 -
22/11:00am 24.7 - - - - ESE 37 43 20 23 1019.3 - -
22/10:30am 25.1 - - - - ESE 33 39 18 21 1019.4 - -
22/10:24am 24.9 - - - - ESE 35 - 19 - - 1019.3 -
22/10:00am 24.8 - - - - ESE 37 46 20 25 1019.6 - -
22/09:30am 24.8 - - - - SE 37 43 20 23 1019.8 - -
22/09:24am 24.7 - - - - SE 37 - 20 - - 1019.7 -
22/09:00am 24.7 - - - - SE 35 41 19 22 1019.7 - -
22/08:30am 24.5 - - - - SE 37 43 20 23 1019.4 - -
22/08:24am 24.6 - - - - SE 37 - 20 - - 1019.3 -
22/08:00am 24.5 - - - - SE 35 43 19 23 1019.1 - -
22/07:30am 24.4 - - - - SE 35 43 19 23 1018.8 - -
22/07:24am 24.6 - - - - SE 37 - 20 - - 1018.7 -
22/07:00am 24.5 - - - - SE 35 43 19 23 1018.6 - -
22/06:30am 24.4 - - - - SE 39 44 21 24 1018.4 - -
22/06:24am 24.4 - - - - SE 39 - 21 - - 1018.2 -
22/06:00am 24.0 - - - - SE 39 44 21 24 1018.1 - -
22/05:30am 23.5 - - - - SSE 28 39 15 21 1018.1 - -
22/05:24am 23.6 - - - - SSE 28 - 15 - - 1018.0 -
22/05:00am 23.3 - - - - SSE 28 32 15 17 1018.1 - -
22/04:30am 22.7 - - - - SSE 39 44 21 24 1018.1 - -
22/04:24am 22.4 - - - - SSE 44 - 24 - - 1017.9 -
22/04:00am 22.8 - - - - SE 48 57 26 31 1018.0 - -
22/03:30am 24.1 - - - - SE 37 43 20 23 1018.0 - -
22/03:24am 24.0 - - - - SE 35 - 19 - - 1018.0 -
22/03:00am 24.1 - - - - SSE 33 39 18 21 1018.2 - -
22/02:30am 23.9 - - - - SE 35 41 19 22 1018.3 - -
22/02:24am 23.9 - - - - SE 33 - 18 - - 1018.2 -
22/02:00am 23.4 - - - - SSE 35 44 19 24 1018.7 - -
22/01:30am 23.8 - - - - SE 39 46 21 25 1018.9 - -
22/01:24am 23.9 - - - - SSE 37 - 20 - - 1018.9 -
22/01:00am 23.9 - - - - SSE 41 46 22 25 1019.0 - -
22/12:30am 23.9 - - - - SSE 39 46 21 25 1019.0 - -
22/12:24am 23.8 - - - - SSE 39 - 21 - - 1019.0 -
22/12:00am 24.1 - - - - SSE 43 48 23 26 1019.2 - -
 
Date/Time
EST
Temp
°C
App
Temp
°C
Dew
Point
°C
Rel
Hum
%
Delta-T
°C
Wind Press
QNH
hPa
Press
MSL
hPa
Rain since
9am
mm
Dir  Spd
km/h
Gust
km/h
Spd
kts
Gust
kts
21/11:30pm 24.1 - - - - SE 41 50 22 27 1019.4 - -
21/11:24pm 24.1 - - - - SE 41 - 22 - - 1019.3 -
21/11:00pm 24.1 - - - - SSE 41 46 22 25 1019.6 - -
21/10:30pm 23.9 - - - - SSE 41 48 22 26 1019.8 - -
21/10:24pm 23.9 - - - - SE 41 - 22 - - 1019.7 -
21/10:00pm 24.0 - - - - SE 41 50 22 27 1019.9 - -
21/09:30pm 24.2 - - - - SSE 41 48 22 26 1019.7 - -
21/09:24pm 24.0 - - - - SSE 43 - 23 - - 1019.5 -
21/09:00pm 24.2 - - - - SSE 41 44 22 24 1019.6 - -
21/08:30pm 24.0 - - - - SSE 43 50 23 27 1019.4 - -
21/08:24pm 24.0 - - - - SSE 43 - 23 - - 1019.3 -
21/08:00pm 23.9 - - - - SE 41 52 22 28 1019.2 - -
21/07:30pm 23.9 - - - - SSE 43 48 23 26 1018.7 - -
21/07:24pm 23.8 - - - - SSE 43 - 23 - - 1018.5 -
21/07:00pm 23.9 - - - - SSE 41 46 22 25 1018.3 - -
21/06:30pm 23.7 - - - - SSE 43 50 23 27 1017.9 - -
21/06:24pm 23.9 - - - - SSE 43 - 23 - - 1017.7 -
21/06:00pm 23.8 - - - - SSE 43 50 23 27 1017.5 - -
21/05:30pm 24.0 - - - - SSE 44 52 24 28 1017.2 - -
21/05:24pm 23.8 - - - - SSE 44 - 24 - - 1017.0 -
21/05:00pm 23.9 - - - - SSE 44 50 24 27 1016.9 - -
21/04:30pm 24.2 - - - - SSE 43 50 23 27 1016.7 - -
21/04:24pm 23.9 - - - - SSE 41 - 22 - - 1016.6 -
21/04:00pm 24.0 - - - - SSE 43 50 23 27 1016.6 - -
21/03:30pm 24.1 - - - - SSE 43 52 23 28 1016.4 - -
21/03:24pm 24.0 - - - - SSE 44 - 24 - - 1016.2 -

Other Formats:

Comma delimited format used in spreadsheet applications
http://www.bom.gov.au/fwo/IDQ60801/IDQ60801.94290.axf

JavaScript Object Notation format (JSON) in row-major order
http://www.bom.gov.au/fwo/IDQ60801/IDQ60801.94290.json